sensor_id;sensor_type;location;lat;lon;timestamp;pressure;altitude;pressure_sealevel;temperature;humidity
42169;BME280;27838;43.858;25.974;2023-03-22T00:01:22;100821.56;;;16.03;63.33
42169;BME280;27838;43.858;25.974;2023-03-22T00:03:50;100812.09;;;15.94;63.38
42169;BME280;27838;43.858;25.974;2023-03-22T00:06:17;100810.50;;;15.87;63.29
42169;BME280;27838;43.858;25.974;2023-03-22T00:08:48;100808.72;;;15.88;63.51
42169;BME280;27838;43.858;25.974;2023-03-22T00:11:16;100803.66;;;15.80;63.68
42169;BME280;27838;43.858;25.974;2023-03-22T00:13:42;100794.06;;;15.76;64.39
42169;BME280;27838;43.858;25.974;2023-03-22T00:16:11;100795.88;;;15.72;64.36
42169;BME280;27838;43.858;25.974;2023-03-22T00:18:39;100793.31;;;15.69;64.21
42169;BME280;27838;43.858;25.974;2023-03-22T00:21:09;100796.69;;;15.76;63.92
42169;BME280;27838;43.858;25.974;2023-03-22T00:23:36;100799.41;;;15.71;64.13
42169;BME280;27838;43.858;25.974;2023-03-22T00:26:03;100803.78;;;15.71;64.68
42169;BME280;27838;43.858;25.974;2023-03-22T00:28:29;100805.50;;;15.72;63.87
42169;BME280;27838;43.858;25.974;2023-03-22T00:30:58;100801.16;;;15.71;64.31
42169;BME280;27838;43.858;25.974;2023-03-22T00:33:25;100810.75;;;15.75;64.31
42169;BME280;27838;43.858;25.974;2023-03-22T00:36:13;100808.06;;;15.78;64.42
42169;BME280;27838;43.858;25.974;2023-03-22T00:38:39;100809.75;;;15.80;63.87
42169;BME280;27838;43.858;25.974;2023-03-22T00:41:16;100814.22;;;15.77;64.55
42169;BME280;27838;43.858;25.974;2023-03-22T00:43:44;100812.44;;;15.77;64.13
42169;BME280;27838;43.858;25.974;2023-03-22T00:46:13;100805.50;;;15.73;64.41
42169;BME280;27838;43.858;25.974;2023-03-22T00:48:40;100812.47;;;15.76;64.31
42169;BME280;27838;43.858;25.974;2023-03-22T00:51:07;100808.13;;;15.73;64.47
42169;BME280;27838;43.858;25.974;2023-03-22T00:53:35;100812.50;;;15.73;64.68
42169;BME280;27838;43.858;25.974;2023-03-22T00:56:05;100811.66;;;15.71;64.58
42169;BME280;27838;43.858;25.974;2023-03-22T00:58:32;100809.91;;;15.71;64.81
42169;BME280;27838;43.858;25.974;2023-03-22T01:00:59;100807.25;;;15.73;64.91
42169;BME280;27838;43.858;25.974;2023-03-22T01:03:25;100804.63;;;15.73;64.54
42169;BME280;27838;43.858;25.974;2023-03-22T01:05:52;100804.56;;;15.74;64.78
42169;BME280;27838;43.858;25.974;2023-03-22T01:08:21;100813.38;;;15.73;65.03
42169;BME280;27838;43.858;25.974;2023-03-22T01:10:48;100806.41;;;15.71;64.80
42169;BME280;27838;43.858;25.974;2023-03-22T01:13:15;100812.59;;;15.68;65.04
42169;BME280;27838;43.858;25.974;2023-03-22T01:15:42;100812.56;;;15.70;65.30
42169;BME280;27838;43.858;25.974;2023-03-22T01:18:09;100809.94;;;15.70;65.34
42169;BME280;27838;43.858;25.974;2023-03-22T01:20:35;100803.91;;;15.64;65.17
42169;BME280;27838;43.858;25.974;2023-03-22T01:23:02;100808.25;;;15.65;65.80
42169;BME280;27838;43.858;25.974;2023-03-22T01:25:29;100802.13;;;15.65;65.53
42169;BME280;27838;43.858;25.974;2023-03-22T01:27:55;100786.47;;;15.60;65.51
42169;BME280;27838;43.858;25.974;2023-03-22T01:30:22;100797.84;;;15.61;65.66
42169;BME280;27838;43.858;25.974;2023-03-22T01:32:49;100799.69;;;15.57;65.86
42169;BME280;27838;43.858;25.974;2023-03-22T01:35:15;100803.22;;;15.53;66.36
42169;BME280;27838;43.858;25.974;2023-03-22T01:37:42;100798.19;;;15.42;66.65
42169;BME280;27838;43.858;25.974;2023-03-22T01:40:10;100800.94;;;15.38;67.07
42169;BME280;27838;43.858;25.974;2023-03-22T01:42:37;100804.53;;;15.30;66.81
42169;BME280;27838;43.858;25.974;2023-03-22T01:47:47;100810.66;;;15.33;67.37
42169;BME280;27838;43.858;25.974;2023-03-22T01:50:15;100803.63;;;15.33;67.29
42169;BME280;27838;43.858;25.974;2023-03-22T01:52:43;100808.03;;;15.33;67.29
42169;BME280;27838;43.858;25.974;2023-03-22T01:55:10;100807.09;;;15.35;67.22
42169;BME280;27838;43.858;25.974;2023-03-22T01:57:38;100802.78;;;15.33;67.73
42169;BME280;27838;43.858;25.974;2023-03-22T02:00:08;100800.97;;;15.35;67.60
42169;BME280;27838;43.858;25.974;2023-03-22T02:02:38;100811.47;;;15.35;67.60
42169;BME280;27838;43.858;25.974;2023-03-22T02:05:04;100805.41;;;15.31;67.55
42169;BME280;27838;43.858;25.974;2023-03-22T02:07:31;100813.19;;;15.36;67.64
42169;BME280;27838;43.858;25.974;2023-03-22T02:09:58;100811.44;;;15.38;67.24
42169;BME280;27838;43.858;25.974;2023-03-22T02:15:27;100814.88;;;15.40;67.50
42169;BME280;27838;43.858;25.974;2023-03-22T02:18:11;100811.44;;;15.38;67.57
42169;BME280;27838;43.858;25.974;2023-03-22T02:45:20;100832.91;;;15.10;68.01
42169;BME280;27838;43.858;25.974;2023-03-22T02:47:57;100832.84;;;15.13;67.45
42169;BME280;27838;43.858;25.974;2023-03-22T02:50:36;100838.97;;;15.15;67.79
42169;BME280;27838;43.858;25.974;2023-03-22T02:58:21;100846.03;;;15.12;67.71
42169;BME280;27838;43.858;25.974;2023-03-22T03:00:55;100844.25;;;15.12;67.80
42169;BME280;27838;43.858;25.974;2023-03-22T03:03:26;100843.28;;;15.18;67.58
42169;BME280;27838;43.858;25.974;2023-03-22T03:05:56;100837.16;;;15.17;67.33
42169;BME280;27838;43.858;25.974;2023-03-22T03:08:24;100853.72;;;15.21;67.79
42169;BME280;27838;43.858;25.974;2023-03-22T03:10:52;100847.56;;;15.22;67.59
42169;BME280;27838;43.858;25.974;2023-03-22T03:13:19;100845.00;;;15.20;67.74
42169;BME280;27838;43.858;25.974;2023-03-22T03:15:51;100846.75;;;15.18;67.52
42169;BME280;27838;43.858;25.974;2023-03-22T03:18:23;100845.88;;;15.19;67.61
42169;BME280;27838;43.858;25.974;2023-03-22T03:21:03;100845.88;;;15.19;67.46
42169;BME280;27838;43.858;25.974;2023-03-22T03:26:28;100848.59;;;15.13;68.01
42169;BME280;27838;43.858;25.974;2023-03-22T03:29:09;100852.19;;;15.09;67.57
42169;BME280;27838;43.858;25.974;2023-03-22T03:34:29;100848.72;;;15.07;67.76
42169;BME280;27838;43.858;25.974;2023-03-22T03:37:05;100854.00;;;15.05;67.59
42169;BME280;27838;43.858;25.974;2023-03-22T03:39:37;100848.75;;;15.04;67.76
42169;BME280;27838;43.858;25.974;2023-03-22T03:42:06;100847.97;;;14.99;67.72
42169;BME280;27838;43.858;25.974;2023-03-22T03:44:37;100842.91;;;14.86;67.73
42169;BME280;27838;43.858;25.974;2023-03-22T03:47:06;100855.13;;;14.89;67.37
42169;BME280;27838;43.858;25.974;2023-03-22T03:49:34;100854.22;;;14.90;67.47
42169;BME280;27838;43.858;25.974;2023-03-22T03:52:03;100852.63;;;14.81;68.40
42169;BME280;27838;43.858;25.974;2023-03-22T03:54:29;100856.22;;;14.76;69.07
42169;BME280;27838;43.858;25.974;2023-03-22T03:56:56;100861.47;;;14.74;69.11
42169;BME280;27838;43.858;25.974;2023-03-22T03:59:23;100865.88;;;14.73;68.55
42169;BME280;27838;43.858;25.974;2023-03-22T04:01:49;100864.09;;;14.74;68.38
42169;BME280;27838;43.858;25.974;2023-03-22T04:04:23;100862.41;;;14.71;67.77
42169;BME280;27838;43.858;25.974;2023-03-22T04:06:56;100861.50;;;14.71;67.56
42169;BME280;27838;43.858;25.974;2023-03-22T04:09:30;100865.88;;;14.73;67.41
42169;BME280;27838;43.858;25.974;2023-03-22T04:11:57;100865.84;;;14.75;67.52
42169;BME280;27838;43.858;25.974;2023-03-22T04:14:24;100872.81;;;14.76;67.03
42169;BME280;27838;43.858;25.974;2023-03-22T04:16:51;100871.09;;;14.75;67.47
42169;BME280;27838;43.858;25.974;2023-03-22T04:19:18;100869.34;;;14.74;66.78
42169;BME280;27838;43.858;25.974;2023-03-22T04:21:45;100878.06;;;14.75;66.63
42169;BME280;27838;43.858;25.974;2023-03-22T04:24:12;100879.00;;;14.72;66.37
42169;BME280;27838;43.858;25.974;2023-03-22T04:26:39;100876.41;;;14.70;66.58
42169;BME280;27838;43.858;25.974;2023-03-22T04:29:06;100882.50;;;14.71;66.69
42169;BME280;27838;43.858;25.974;2023-03-22T04:31:32;100887.75;;;14.71;66.46
42169;BME280;27838;43.858;25.974;2023-03-22T04:33:59;100892.19;;;14.66;66.58
42169;BME280;27838;43.858;25.974;2023-03-22T04:36:34;100889.72;;;14.53;66.69
42169;BME280;27838;43.858;25.974;2023-03-22T04:41:54;100888.84;;;14.53;67.71
42169;BME280;27838;43.858;25.974;2023-03-22T04:44:21;100889.78;;;14.50;67.51
42169;BME280;27838;43.858;25.974;2023-03-22T04:46:47;100890.59;;;14.54;66.96
42169;BME280;27838;43.858;25.974;2023-03-22T04:49:14;100899.28;;;14.58;66.89
42169;BME280;27838;43.858;25.974;2023-03-22T04:51:41;100894.94;;;14.53;67.12
42169;BME280;27838;43.858;25.974;2023-03-22T04:54:07;100895.03;;;14.50;67.15
42169;BME280;27838;43.858;25.974;2023-03-22T04:56:34;100896.81;;;14.47;67.63
42169;BME280;27838;43.858;25.974;2023-03-22T04:59:00;100895.94;;;14.46;67.57
42169;BME280;27838;43.858;25.974;2023-03-22T05:01:27;100894.22;;;14.44;67.35
42169;BME280;27838;43.858;25.974;2023-03-22T05:03:54;100900.47;;;14.35;68.08
42169;BME280;27838;43.858;25.974;2023-03-22T05:06:21;100901.34;;;14.32;68.11
42169;BME280;27838;43.858;25.974;2023-03-22T05:08:47;100899.66;;;14.30;67.53
42169;BME280;27838;43.858;25.974;2023-03-22T05:11:16;100910.09;;;14.33;67.59
42169;BME280;27838;43.858;25.974;2023-03-22T05:13:43;100900.53;;;14.29;67.30
42169;BME280;27838;43.858;25.974;2023-03-22T05:16:10;100910.97;;;14.32;67.65
42169;BME280;27838;43.858;25.974;2023-03-22T05:18:37;100917.19;;;14.26;67.47
42169;BME280;27838;43.858;25.974;2023-03-22T05:21:10;100916.34;;;14.23;68.20
42169;BME280;27838;43.858;25.974;2023-03-22T05:23:38;100918.94;;;14.24;68.02
42169;BME280;27838;43.858;25.974;2023-03-22T05:26:05;100914.56;;;14.25;68.25
42169;BME280;27838;43.858;25.974;2023-03-22T05:28:32;100924.19;;;14.24;68.31
42169;BME280;27838;43.858;25.974;2023-03-22T05:31:00;100925.09;;;14.22;68.37
42169;BME280;27838;43.858;25.974;2023-03-22T05:33:27;100927.66;;;14.26;67.47
42169;BME280;27838;43.858;25.974;2023-03-22T05:35:54;100929.38;;;14.26;67.68
42169;BME280;27838;43.858;25.974;2023-03-22T05:38:20;100939.00;;;14.28;67.83
42169;BME280;27838;43.858;25.974;2023-03-22T05:40:48;100924.16;;;14.26;67.59
42169;BME280;27838;43.858;25.974;2023-03-22T05:43:15;100937.19;;;14.32;67.36
42169;BME280;27838;43.858;25.974;2023-03-22T05:45:42;100939.81;;;14.32;67.23
42169;BME280;27838;43.858;25.974;2023-03-22T05:48:10;100935.41;;;14.34;67.30
42169;BME280;27838;43.858;25.974;2023-03-22T05:50:37;100940.63;;;14.37;66.77
42169;BME280;27838;43.858;25.974;2023-03-22T05:53:03;100942.38;;;14.38;66.92
42169;BME280;27838;43.858;25.974;2023-03-22T05:55:30;100937.16;;;14.37;66.70
42169;BME280;27838;43.858;25.974;2023-03-22T05:58:00;100947.66;;;14.33;67.34
42169;BME280;27838;43.858;25.974;2023-03-22T06:00:27;100952.00;;;14.34;67.03
42169;BME280;27838;43.858;25.974;2023-03-22T06:02:57;100952.88;;;14.37;67.33
42169;BME280;27838;43.858;25.974;2023-03-22T06:05:28;100948.63;;;14.28;67.14
42169;BME280;27838;43.858;25.974;2023-03-22T06:07:56;100954.72;;;14.30;67.04
42169;BME280;27838;43.858;25.974;2023-03-22T06:10:22;100952.09;;;14.30;66.61
42169;BME280;27838;43.858;25.974;2023-03-22T06:12:51;100963.44;;;14.30;66.87
42169;BME280;27838;43.858;25.974;2023-03-22T06:15:18;100966.91;;;14.31;66.86
42169;BME280;27838;43.858;25.974;2023-03-22T06:17:45;100959.09;;;14.28;67.13
42169;BME280;27838;43.858;25.974;2023-03-22T06:20:12;100962.59;;;14.28;67.08
42169;BME280;27838;43.858;25.974;2023-03-22T06:22:40;100972.16;;;14.31;67.26
42169;BME280;27838;43.858;25.974;2023-03-22T06:25:07;100974.75;;;14.32;67.53
42169;BME280;27838;43.858;25.974;2023-03-22T06:27:34;100973.91;;;14.32;67.51
42169;BME280;27838;43.858;25.974;2023-03-22T06:30:01;100973.91;;;14.32;67.49
42169;BME280;27838;43.858;25.974;2023-03-22T06:32:27;100979.19;;;14.29;68.21
42169;BME280;27838;43.858;25.974;2023-03-22T06:34:55;100982.63;;;14.34;67.40
42169;BME280;27838;43.858;25.974;2023-03-22T06:37:22;100982.59;;;14.37;67.03
42169;BME280;27838;43.858;25.974;2023-03-22T06:39:49;100986.06;;;14.39;67.57
42169;BME280;27838;43.858;25.974;2023-03-22T06:42:16;100989.53;;;14.41;66.97
42169;BME280;27838;43.858;25.974;2023-03-22T06:44:43;100987.75;;;14.43;67.16
42169;BME280;27838;43.858;25.974;2023-03-22T06:47:10;100988.63;;;14.45;66.90
42169;BME280;27838;43.858;25.974;2023-03-22T06:49:37;100990.34;;;14.45;66.90
42169;BME280;27838;43.858;25.974;2023-03-22T06:52:04;100989.53;;;14.41;66.84
42169;BME280;27838;43.858;25.974;2023-03-22T06:54:31;101008.69;;;14.46;66.52
42169;BME280;27838;43.858;25.974;2023-03-22T06:56:57;101006.97;;;14.47;66.65
42169;BME280;27838;43.858;25.974;2023-03-22T06:59:24;100999.97;;;14.44;66.78
42169;BME280;27838;43.858;25.974;2023-03-22T07:01:51;101001.72;;;14.45;66.92
42169;BME280;27838;43.858;25.974;2023-03-22T07:04:17;101010.47;;;14.44;67.81
42169;BME280;27838;43.858;25.974;2023-03-22T07:06:44;101007.88;;;14.43;67.56
42169;BME280;27838;43.858;25.974;2023-03-22T07:09:11;101014.03;;;14.40;67.41
42169;BME280;27838;43.858;25.974;2023-03-22T07:11:37;101013.13;;;14.43;67.25
42169;BME280;27838;43.858;25.974;2023-03-22T07:14:04;101016.56;;;14.48;66.94
42169;BME280;27838;43.858;25.974;2023-03-22T07:16:30;101020.03;;;14.50;67.36
42169;BME280;27838;43.858;25.974;2023-03-22T07:18:57;101013.13;;;14.40;67.61
42169;BME280;27838;43.858;25.974;2023-03-22T07:21:23;101014.88;;;14.41;67.29
42169;BME280;27838;43.858;25.974;2023-03-22T07:23:50;101024.50;;;14.42;67.33
42169;BME280;27838;43.858;25.974;2023-03-22T07:26:16;101021.88;;;14.42;67.50
42169;BME280;27838;43.858;25.974;2023-03-22T07:28:43;101020.97;;;14.44;67.48
42169;BME280;27838;43.858;25.974;2023-03-22T07:31:11;101017.47;;;14.45;67.12
42169;BME280;27838;43.858;25.974;2023-03-22T07:33:38;101020.91;;;14.50;67.33
42169;BME280;27838;43.858;25.974;2023-03-22T07:36:06;101034.91;;;14.49;67.64
42169;BME280;27838;43.858;25.974;2023-03-22T07:38:34;101027.03;;;14.48;68.07
42169;BME280;27838;43.858;25.974;2023-03-22T07:41:00;101019.22;;;14.43;67.92
42169;BME280;27838;43.858;25.974;2023-03-22T07:43:27;101034.03;;;14.49;67.87
42169;BME280;27838;43.858;25.974;2023-03-22T07:45:53;101040.13;;;14.52;67.62
42169;BME280;27838;43.858;25.974;2023-03-22T07:48:21;101031.44;;;14.46;68.31
42169;BME280;27838;43.858;25.974;2023-03-22T07:50:48;101040.16;;;14.49;68.34
42169;BME280;27838;43.858;25.974;2023-03-22T07:53:15;101036.66;;;14.50;68.25
42169;BME280;27838;43.858;25.974;2023-03-22T07:55:41;101040.97;;;14.53;68.32
42169;BME280;27838;43.858;25.974;2023-03-22T07:58:08;101041.03;;;14.48;68.29
42169;BME280;27838;43.858;25.974;2023-03-22T08:00:34;101038.38;;;14.51;67.53
42169;BME280;27838;43.858;25.974;2023-03-22T08:03:01;101038.38;;;14.51;67.65
42169;BME280;27838;43.858;25.974;2023-03-22T08:05:27;101043.59;;;14.54;67.67
42169;BME280;27838;43.858;25.974;2023-03-22T08:07:54;101040.09;;;14.56;68.03
42169;BME280;27838;43.858;25.974;2023-03-22T08:10:21;101039.19;;;14.61;67.19
42169;BME280;27838;43.858;25.974;2023-03-22T08:12:47;101033.09;;;14.54;67.21
42169;BME280;27838;43.858;25.974;2023-03-22T08:15:14;101040.03;;;14.62;67.42
42169;BME280;27838;43.858;25.974;2023-03-22T08:17:41;101039.19;;;14.57;67.93
42169;BME280;27838;43.858;25.974;2023-03-22T08:20:08;101047.94;;;14.59;67.86
42169;BME280;27838;43.858;25.974;2023-03-22T08:22:35;101041.81;;;14.57;67.75
42169;BME280;27838;43.858;25.974;2023-03-22T08:25:05;101041.81;;;14.57;68.01
42169;BME280;27838;43.858;25.974;2023-03-22T08:27:32;101043.53;;;14.61;68.06
42169;BME280;27838;43.858;25.974;2023-03-22T08:29:59;101048.75;;;14.64;67.94
42169;BME280;27838;43.858;25.974;2023-03-22T08:32:26;101046.16;;;14.61;68.12
42169;BME280;27838;43.858;25.974;2023-03-22T08:34:54;101042.66;;;14.60;68.04
42169;BME280;27838;43.858;25.974;2023-03-22T08:37:21;101049.63;;;14.64;68.69
42169;BME280;27838;43.858;25.974;2023-03-22T08:39:47;101049.59;;;14.66;68.30
42169;BME280;27838;43.858;25.974;2023-03-22T08:42:14;101045.25;;;14.65;68.46
42169;BME280;27838;43.858;25.974;2023-03-22T08:44:40;101043.47;;;14.67;68.09
42169;BME280;27838;43.858;25.974;2023-03-22T08:47:07;101046.94;;;14.69;68.34
42169;BME280;27838;43.858;25.974;2023-03-22T08:49:34;101053.03;;;14.71;68.74
42169;BME280;27838;43.858;25.974;2023-03-22T08:52:00;101050.41;;;14.71;68.50
42169;BME280;27838;43.858;25.974;2023-03-22T08:54:27;101038.22;;;14.67;68.47
42169;BME280;27838;43.858;25.974;2023-03-22T08:56:57;101048.69;;;14.70;68.77
42169;BME280;27838;43.858;25.974;2023-03-22T08:59:24;101056.56;;;14.71;68.92
42169;BME280;27838;43.858;25.974;2023-03-22T09:01:51;101042.66;;;14.60;68.69
42169;BME280;27838;43.858;25.974;2023-03-22T09:04:18;101058.28;;;14.71;68.74
42169;BME280;27838;43.858;25.974;2023-03-22T09:06:44;101057.41;;;14.70;68.28
42169;BME280;27838;43.858;25.974;2023-03-22T09:09:11;101052.16;;;14.72;68.32
42169;BME280;27838;43.858;25.974;2023-03-22T09:11:38;101051.28;;;14.73;68.37
42169;BME280;27838;43.858;25.974;2023-03-22T09:14:06;101060.00;;;14.75;68.50
42169;BME280;27838;43.858;25.974;2023-03-22T09:16:33;101060.88;;;14.74;68.46
42169;BME280;27838;43.858;25.974;2023-03-22T09:19:00;101060.06;;;14.67;68.88
42169;BME280;27838;43.858;25.974;2023-03-22T09:21:27;101062.72;;;14.66;69.38
42169;BME280;27838;43.858;25.974;2023-03-22T09:23:54;101050.53;;;14.62;69.20
42169;BME280;27838;43.858;25.974;2023-03-22T09:26:21;101057.56;;;14.53;68.70
42169;BME280;27838;43.858;25.974;2023-03-22T09:28:48;101058.66;;;14.35;69.84
42169;BME280;27838;43.858;25.974;2023-03-22T09:31:15;101063.84;;;14.42;69.40
42169;BME280;27838;43.858;25.974;2023-03-22T09:33:41;101055.16;;;14.35;69.40
42169;BME280;27838;43.858;25.974;2023-03-22T09:36:09;101068.28;;;14.35;70.06
42169;BME280;27838;43.858;25.974;2023-03-22T09:38:37;101064.72;;;14.39;69.88
42169;BME280;27838;43.858;25.974;2023-03-22T09:41:14;101054.22;;;14.41;69.46
42169;BME280;27838;43.858;25.974;2023-03-22T09:43:47;101060.31;;;14.43;69.38
42169;BME280;27838;43.858;25.974;2023-03-22T09:46:22;101060.38;;;14.38;69.82
42169;BME280;27838;43.858;25.974;2023-03-22T09:48:50;101062.94;;;14.41;69.75
42169;BME280;27838;43.858;25.974;2023-03-22T09:51:29;101052.53;;;14.38;70.23
42169;BME280;27838;43.858;25.974;2023-03-22T09:54:01;101063.88;;;14.39;69.70
42169;BME280;27838;43.858;25.974;2023-03-22T09:56:30;101064.66;;;14.47;69.96
42169;BME280;27838;43.858;25.974;2023-03-22T09:59:11;101062.88;;;14.50;69.77
42169;BME280;27838;43.858;25.974;2023-03-22T10:10:06;101064.59;;;14.51;69.53
42169;BME280;27838;43.858;25.974;2023-03-22T10:12:50;101075.06;;;14.54;69.67
42169;BME280;27838;43.858;25.974;2023-03-22T10:15:23;101067.16;;;14.58;69.48
42169;BME280;27838;43.858;25.974;2023-03-22T10:17:55;101067.13;;;14.64;69.44
42169;BME280;27838;43.858;25.974;2023-03-22T10:20:30;101068.84;;;14.68;69.40
42169;BME280;27838;43.858;25.974;2023-03-22T10:23:03;101068.78;;;14.69;69.51
42169;BME280;27838;43.858;25.974;2023-03-22T10:25:39;101069.59;;;14.76;68.72
42169;BME280;27838;43.858;25.974;2023-03-22T10:28:14;101071.38;;;14.72;68.71
42169;BME280;27838;43.858;25.974;2023-03-22T10:30:41;101070.59;;;14.66;69.79
42169;BME280;27838;43.858;25.974;2023-03-22T10:33:18;101061.06;;;14.56;69.84
42169;BME280;27838;43.858;25.974;2023-03-22T10:35:48;101063.72;;;14.52;70.10
42169;BME280;27838;43.858;25.974;2023-03-22T10:38:23;101059.34;;;14.53;70.55
42169;BME280;27838;43.858;25.974;2023-03-22T10:40:54;101061.91;;;14.61;69.97
42169;BME280;27838;43.858;25.974;2023-03-22T10:43:34;101058.34;;;14.66;70.07
42169;BME280;27838;43.858;25.974;2023-03-22T10:46:03;101062.69;;;14.69;70.88
42169;BME280;27838;43.858;25.974;2023-03-22T10:48:38;101057.41;;;14.72;70.63
42169;BME280;27838;43.858;25.974;2023-03-22T10:51:07;101059.06;;;14.79;70.05
42169;BME280;27838;43.858;25.974;2023-03-22T10:53:45;101062.50;;;14.84;70.00
42169;BME280;27838;43.858;25.974;2023-03-22T10:56:17;101065.13;;;14.84;70.25
42169;BME280;27838;43.858;25.974;2023-03-22T10:58:44;101056.41;;;14.82;69.65
42169;BME280;27838;43.858;25.974;2023-03-22T11:01:14;101039.00;;;14.75;69.82
42169;BME280;27838;43.858;25.974;2023-03-22T11:03:43;101053.75;;;14.85;70.23
42169;BME280;27838;43.858;25.974;2023-03-22T11:08:50;101055.28;;;15.02;69.53
42169;BME280;27838;43.858;25.974;2023-03-22T11:11:23;101049.09;;;15.07;70.41
42169;BME280;27838;43.858;25.974;2023-03-22T11:13:59;101048.34;;;14.99;69.81
42169;BME280;27838;43.858;25.974;2023-03-22T11:16:28;101043.09;;;14.98;69.85
42169;BME280;27838;43.858;25.974;2023-03-22T11:18:56;101045.66;;;15.01;70.13
42169;BME280;27838;43.858;25.974;2023-03-22T11:21:31;101040.41;;;15.02;69.75
42169;BME280;27838;43.858;25.974;2023-03-22T11:24:02;101038.63;;;15.04;70.07
42169;BME280;27838;43.858;25.974;2023-03-22T11:26:33;101038.59;;;15.07;70.50
42169;BME280;27838;43.858;25.974;2023-03-22T11:29:09;101036.75;;;15.13;69.89
42169;BME280;27838;43.858;25.974;2023-03-22T11:31:54;101037.66;;;15.12;70.91
42169;BME280;27838;43.858;25.974;2023-03-22T11:34:23;101038.59;;;15.07;70.68
42169;BME280;27838;43.858;25.974;2023-03-22T11:36:50;101039.38;;;15.13;71.27
42169;BME280;27838;43.858;25.974;2023-03-22T11:39:25;101039.25;;;15.22;70.59
42169;BME280;27838;43.858;25.974;2023-03-22T11:41:58;101033.97;;;15.23;70.26
42169;BME280;27838;43.858;25.974;2023-03-22T11:44:31;101031.31;;;15.26;70.25
42169;BME280;27838;43.858;25.974;2023-03-22T11:47:00;101033.81;;;15.36;70.04
42169;BME280;27838;43.858;25.974;2023-03-22T11:49:53;101024.22;;;15.33;69.85
42169;BME280;27838;43.858;25.974;2023-03-22T11:52:24;101026.91;;;15.28;69.28
42169;BME280;27838;43.858;25.974;2023-03-22T11:54:52;101017.28;;;15.29;69.39
42169;BME280;27838;43.858;25.974;2023-03-22T11:57:26;101021.66;;;15.28;69.37
42169;BME280;27838;43.858;25.974;2023-03-22T12:02:41;101028.06;;;15.09;69.74
42169;BME280;27838;43.858;25.974;2023-03-22T12:05:26;101023.72;;;15.08;70.29
42169;BME280;27838;43.858;25.974;2023-03-22T12:07:58;101025.59;;;14.97;70.51
42169;BME280;27838;43.858;25.974;2023-03-22T12:10:37;101025.72;;;14.90;70.84
42169;BME280;27838;43.858;25.974;2023-03-22T12:13:18;101029.31;;;14.82;70.99
42169;BME280;27838;43.858;25.974;2023-03-22T12:15:54;101029.25;;;14.86;71.02
42169;BME280;27838;43.858;25.974;2023-03-22T12:18:29;101027.38;;;14.95;71.05
42169;BME280;27838;43.858;25.974;2023-03-22T12:21:00;101026.41;;;15.02;71.37
42169;BME280;27838;43.858;25.974;2023-03-22T12:23:30;101026.41;;;15.03;70.10
42169;BME280;27838;43.858;25.974;2023-03-22T12:31:05;101029.78;;;15.12;69.74
42169;BME280;27838;43.858;25.974;2023-03-22T12:33:54;101028.91;;;15.11;70.10
42169;BME280;27838;43.858;25.974;2023-03-22T12:36:43;101028.81;;;15.20;69.74
42169;BME280;27838;43.858;25.974;2023-03-22T12:39:18;101029.56;;;15.27;69.78
42169;BME280;27838;43.858;25.974;2023-03-22T12:41:49;101023.41;;;15.29;69.13
42169;BME280;27838;43.858;25.974;2023-03-22T12:44:37;101030.34;;;15.34;69.49
42169;BME280;27838;43.858;25.974;2023-03-22T12:47:11;101020.66;;;15.37;69.35
42169;BME280;27838;43.858;25.974;2023-03-22T12:49:57;101029.38;;;15.39;69.36
42169;BME280;27838;43.858;25.974;2023-03-22T12:52:37;101025.00;;;15.40;68.85
42169;BME280;27838;43.858;25.974;2023-03-22T12:55:05;101020.56;;;15.43;69.00
42169;BME280;27838;43.858;25.974;2023-03-22T12:57:35;101024.06;;;15.42;68.42
42169;BME280;27838;43.858;25.974;2023-03-22T13:00:06;101024.03;;;15.45;68.80
42169;BME280;27838;43.858;25.974;2023-03-22T13:02:47;101017.03;;;15.44;69.00
42169;BME280;27838;43.858;25.974;2023-03-22T13:05:16;101024.84;;;15.49;68.83
42169;BME280;27838;43.858;25.974;2023-03-22T13:21:31;101012.78;;;15.37;69.67
42169;BME280;27838;43.858;25.974;2023-03-22T13:31:57;101011.56;;;15.58;69.44
42169;BME280;27838;43.858;25.974;2023-03-22T13:34:43;101008.06;;;15.58;69.24
42169;BME280;27838;43.858;25.974;2023-03-22T13:37:23;101003.81;;;15.51;69.04
42169;BME280;27838;43.858;25.974;2023-03-22T13:39:56;101005.50;;;15.53;68.79
42169;BME280;27838;43.858;25.974;2023-03-22T13:42:37;101002.00;;;15.54;69.39
42169;BME280;27838;43.858;25.974;2023-03-22T13:45:29;101007.25;;;15.54;68.81
42169;BME280;27838;43.858;25.974;2023-03-22T13:48:11;101002.03;;;15.53;68.65
42169;BME280;27838;43.858;25.974;2023-03-22T13:50:38;101006.28;;;15.60;68.66
42169;BME280;27838;43.858;25.974;2023-03-22T13:53:14;101002.78;;;15.61;68.78
42169;BME280;27838;43.858;25.974;2023-03-22T14:01:19;101005.25;;;15.70;68.30
42169;BME280;27838;43.858;25.974;2023-03-22T14:03:48;101004.38;;;15.70;68.30
42169;BME280;27838;43.858;25.974;2023-03-22T14:06:26;101007.00;;;15.70;68.63
42169;BME280;27838;43.858;25.974;2023-03-22T14:09:01;100996.56;;;15.66;68.56
42169;BME280;27838;43.858;25.974;2023-03-22T14:11:54;101007.06;;;15.66;69.10
42169;BME280;27838;43.858;25.974;2023-03-22T14:14:26;100999.97;;;15.72;68.62
42169;BME280;27838;43.858;25.974;2023-03-22T14:17:02;100996.47;;;15.73;68.11
42169;BME280;27838;43.858;25.974;2023-03-22T14:19:29;100999.03;;;15.76;67.79
42169;BME280;27838;43.858;25.974;2023-03-22T14:22:04;101002.56;;;15.73;67.87
42169;BME280;27838;43.858;25.974;2023-03-22T14:24:34;100991.28;;;15.66;68.11